Terminal Aerodrome Forecast
Issued by NWS

Home | Current Version | Previous Version | Text Only | Print | Product List | Glossary On
Versions: 1 2 3 4 5 6 7 8 9 10 11 12 13
000
FTUS45 KRIW 231100
TAFRKS
TAF
KRKS 231127Z 2312/2412 27017G27KT P6SM VCSH SCT018 BKN030
     FM231600 29022G30KT P6SM FEW030 SCT060
     FM240200 27022KT P6SM SCT090
     FM241000 27024KT P6SM SCT030 BKN060=

USA.gov is the U.S. government's official web portal to all federal, state and local government web resources and services.